sensor_id;sensor_type;location;lat;lon;timestamp;temperature;humidity
68177;DHT22;56478;50.982;7.032;2022-07-29T00:00:32;20.94;52.60
68177;DHT22;56478;50.982;7.032;2022-07-29T00:03:15;20.89;53.37
68177;DHT22;56478;50.982;7.032;2022-07-29T00:05:44;20.86;52.85
68177;DHT22;56478;50.982;7.032;2022-07-29T00:11:29;20.79;53.17
68177;DHT22;56478;50.982;7.032;2022-07-29T00:14:05;20.80;53.39
68177;DHT22;56478;50.982;7.032;2022-07-29T00:16:39;20.77;53.84
68177;DHT22;56478;50.982;7.032;2022-07-29T00:19:05;20.80;53.42
68177;DHT22;56478;50.982;7.032;2022-07-29T00:21:41;20.79;53.72
68177;DHT22;56478;50.982;7.032;2022-07-29T00:24:19;20.75;53.47
68177;DHT22;56478;50.982;7.032;2022-07-29T00:26:50;20.75;54.34
68177;DHT22;56478;50.982;7.032;2022-07-29T00:29:29;20.73;54.44
68177;DHT22;56478;50.982;7.032;2022-07-29T00:32:23;20.75;54.21
68177;DHT22;56478;50.982;7.032;2022-07-29T00:34:57;20.73;53.58
68177;DHT22;56478;50.982;7.032;2022-07-29T00:37:58;20.80;54.10
68177;DHT22;56478;50.982;7.032;2022-07-29T00:40:44;20.80;53.79
68177;DHT22;56478;50.982;7.032;2022-07-29T00:46:46;20.82;54.49
68177;DHT22;56478;50.982;7.032;2022-07-29T00:49:34;20.82;53.92
68177;DHT22;56478;50.982;7.032;2022-07-29T00:52:10;20.77;54.74
68177;DHT22;56478;50.982;7.032;2022-07-29T00:54:36;20.73;54.04
68177;DHT22;56478;50.982;7.032;2022-07-29T00:57:16;20.71;54.85
68177;DHT22;56478;50.982;7.032;2022-07-29T00:59:44;20.68;55.04
68177;DHT22;56478;50.982;7.032;2022-07-29T01:02:19;20.65;54.91
68177;DHT22;56478;50.982;7.032;2022-07-29T01:08:17;20.62;54.60
68177;DHT22;56478;50.982;7.032;2022-07-29T01:11:04;20.62;55.18
68177;DHT22;56478;50.982;7.032;2022-07-29T01:13:40;20.59;55.20
68177;DHT22;56478;50.982;7.032;2022-07-29T01:16:15;20.59;55.04
68177;DHT22;56478;50.982;7.032;2022-07-29T01:22:07;20.53;55.46
68177;DHT22;56478;50.982;7.032;2022-07-29T01:30:12;20.49;55.80
68177;DHT22;56478;50.982;7.032;2022-07-29T01:33:07;20.49;56.28
68177;DHT22;56478;50.982;7.032;2022-07-29T01:38:44;20.45;54.67
68177;DHT22;56478;50.982;7.032;2022-07-29T01:41:18;20.42;55.47
68177;DHT22;56478;50.982;7.032;2022-07-29T01:44:10;20.38;56.56
68177;DHT22;56478;50.982;7.032;2022-07-29T01:46:57;20.35;55.66
68177;DHT22;56478;50.982;7.032;2022-07-29T01:52:23;20.29;56.43
68177;DHT22;56478;50.982;7.032;2022-07-29T01:57:49;20.31;56.18
68177;DHT22;56478;50.982;7.032;2022-07-29T02:03:13;20.28;57.59
68177;DHT22;56478;50.982;7.032;2022-07-29T02:05:59;20.22;57.27
68177;DHT22;56478;50.982;7.032;2022-07-29T02:11:20;20.11;57.72
68177;DHT22;56478;50.982;7.032;2022-07-29T02:13:52;20.11;57.68
68177;DHT22;56478;50.982;7.032;2022-07-29T02:16:45;20.03;57.89
68177;DHT22;56478;50.982;7.032;2022-07-29T02:19:30;19.98;57.77
68177;DHT22;56478;50.982;7.032;2022-07-29T02:22:21;20.06;58.14
68177;DHT22;56478;50.982;7.032;2022-07-29T02:25:01;20.03;57.82
68177;DHT22;56478;50.982;7.032;2022-07-29T02:27:35;20.01;58.32
68177;DHT22;56478;50.982;7.032;2022-07-29T02:30:12;19.98;57.84
68177;DHT22;56478;50.982;7.032;2022-07-29T02:35:34;19.83;58.45
68177;DHT22;56478;50.982;7.032;2022-07-29T02:38:11;19.82;58.20
68177;DHT22;56478;50.982;7.032;2022-07-29T02:40:59;19.69;58.75
68177;DHT22;56478;50.982;7.032;2022-07-29T02:46:31;19.57;59.35
68177;DHT22;56478;50.982;7.032;2022-07-29T02:58:15;19.49;59.40
68177;DHT22;56478;50.982;7.032;2022-07-29T03:03:54;19.39;60.66
68177;DHT22;56478;50.982;7.032;2022-07-29T03:06:37;19.35;60.59
68177;DHT22;56478;50.982;7.032;2022-07-29T03:09:30;19.30;60.62
68177;DHT22;56478;50.982;7.032;2022-07-29T03:15:00;19.27;61.05
68177;DHT22;56478;50.982;7.032;2022-07-29T03:17:49;19.28;60.06
68177;DHT22;56478;50.982;7.032;2022-07-29T03:23:00;19.27;60.15
68177;DHT22;56478;50.982;7.032;2022-07-29T03:25:56;19.28;60.08
68177;DHT22;56478;50.982;7.032;2022-07-29T03:28:39;19.31;59.97
68177;DHT22;56478;50.982;7.032;2022-07-29T03:31:53;19.35;59.75
68177;DHT22;56478;50.982;7.032;2022-07-29T03:34:40;19.47;59.70
68177;DHT22;56478;50.982;7.032;2022-07-29T03:37:14;19.47;59.79
68177;DHT22;56478;50.982;7.032;2022-07-29T03:40:07;19.48;59.42
68177;DHT22;56478;50.982;7.032;2022-07-29T03:42:58;19.57;58.79
68177;DHT22;56478;50.982;7.032;2022-07-29T03:48:39;19.49;60.45
68177;DHT22;56478;50.982;7.032;2022-07-29T03:51:31;19.49;60.33
68177;DHT22;56478;50.982;7.032;2022-07-29T03:54:10;19.48;60.59
68177;DHT22;56478;50.982;7.032;2022-07-29T03:57:11;19.51;60.48
68177;DHT22;56478;50.982;7.032;2022-07-29T03:59:54;19.55;59.84
68177;DHT22;56478;50.982;7.032;2022-07-29T04:02:31;19.62;60.44
68177;DHT22;56478;50.982;7.032;2022-07-29T04:05:16;19.72;58.08
68177;DHT22;56478;50.982;7.032;2022-07-29T04:10:43;19.76;59.69
68177;DHT22;56478;50.982;7.032;2022-07-29T04:16:33;19.66;59.61
68177;DHT22;56478;50.982;7.032;2022-07-29T04:19:33;19.69;59.53
68177;DHT22;56478;50.982;7.032;2022-07-29T04:22:16;19.75;59.15
68177;DHT22;56478;50.982;7.032;2022-07-29T04:25:08;19.85;57.08
68177;DHT22;56478;50.982;7.032;2022-07-29T04:27:39;19.89;57.60
68177;DHT22;56478;50.982;7.032;2022-07-29T04:30:31;19.90;56.52
68177;DHT22;56478;50.982;7.032;2022-07-29T04:33:06;19.90;57.24
68177;DHT22;56478;50.982;7.032;2022-07-29T04:35:47;19.90;55.38
68177;DHT22;56478;50.982;7.032;2022-07-29T04:38:34;19.94;54.08
68177;DHT22;56478;50.982;7.032;2022-07-29T04:41:24;19.94;54.39
68177;DHT22;56478;50.982;7.032;2022-07-29T04:44:11;19.97;54.91
68177;DHT22;56478;50.982;7.032;2022-07-29T04:46:56;19.98;55.45
68177;DHT22;56478;50.982;7.032;2022-07-29T04:49:23;20.03;54.07
68177;DHT22;56478;50.982;7.032;2022-07-29T04:51:56;20.03;55.30
68177;DHT22;56478;50.982;7.032;2022-07-29T04:54:44;20.04;56.53
68177;DHT22;56478;50.982;7.032;2022-07-29T04:57:09;20.07;52.43
68177;DHT22;56478;50.982;7.032;2022-07-29T04:59:40;20.01;54.74
68177;DHT22;56478;50.982;7.032;2022-07-29T05:02:14;20.06;54.38
68177;DHT22;56478;50.982;7.032;2022-07-29T05:05:05;20.10;54.09
68177;DHT22;56478;50.982;7.032;2022-07-29T05:07:36;20.14;55.80
68177;DHT22;56478;50.982;7.032;2022-07-29T05:10:52;20.17;55.71
68177;DHT22;56478;50.982;7.032;2022-07-29T05:16:01;20.29;54.20
68177;DHT22;56478;50.982;7.032;2022-07-29T05:18:32;20.37;55.33
68177;DHT22;56478;50.982;7.032;2022-07-29T05:21:14;20.34;54.06
68177;DHT22;56478;50.982;7.032;2022-07-29T05:23:51;20.35;56.22
68177;DHT22;56478;50.982;7.032;2022-07-29T05:26:32;20.32;52.49
68177;DHT22;56478;50.982;7.032;2022-07-29T05:29:00;20.55;53.72
68177;DHT22;56478;50.982;7.032;2022-07-29T05:31:36;20.62;53.78
68177;DHT22;56478;50.982;7.032;2022-07-29T05:34:19;20.66;54.17
68177;DHT22;56478;50.982;7.032;2022-07-29T05:36:58;20.83;54.40
68177;DHT22;56478;50.982;7.032;2022-07-29T05:39:33;20.80;55.88
68177;DHT22;56478;50.982;7.032;2022-07-29T05:42:24;20.90;55.44
68177;DHT22;56478;50.982;7.032;2022-07-29T05:45:08;21.03;54.28
68177;DHT22;56478;50.982;7.032;2022-07-29T05:47:37;21.00;55.52
68177;DHT22;56478;50.982;7.032;2022-07-29T05:50:25;21.10;53.60
68177;DHT22;56478;50.982;7.032;2022-07-29T05:52:52;21.08;55.35
68177;DHT22;56478;50.982;7.032;2022-07-29T05:58:23;21.34;51.14
68177;DHT22;56478;50.982;7.032;2022-07-29T06:01:07;21.30;51.21
68177;DHT22;56478;50.982;7.032;2022-07-29T06:03:41;21.42;52.65
68177;DHT22;56478;50.982;7.032;2022-07-29T06:06:24;21.46;55.04
68177;DHT22;56478;50.982;7.032;2022-07-29T06:09:00;21.42;55.10
68177;DHT22;56478;50.982;7.032;2022-07-29T06:14:39;21.63;55.30
68177;DHT22;56478;50.982;7.032;2022-07-29T06:17:37;21.76;54.17
68177;DHT22;56478;50.982;7.032;2022-07-29T06:20:03;21.80;54.89
68177;DHT22;56478;50.982;7.032;2022-07-29T06:22:39;21.93;50.38
68177;DHT22;56478;50.982;7.032;2022-07-29T06:25:12;22.01;49.77
68177;DHT22;56478;50.982;7.032;2022-07-29T06:27:49;22.18;50.46
68177;DHT22;56478;50.982;7.032;2022-07-29T06:30:15;22.24;50.69
68177;DHT22;56478;50.982;7.032;2022-07-29T06:32:51;22.10;54.35
68177;DHT22;56478;50.982;7.032;2022-07-29T06:35:23;22.08;54.31
68177;DHT22;56478;50.982;7.032;2022-07-29T06:37:51;21.92;53.46
68177;DHT22;56478;50.982;7.032;2022-07-29T06:40:24;21.93;54.64
68177;DHT22;56478;50.982;7.032;2022-07-29T06:43:08;21.94;54.35
68177;DHT22;56478;50.982;7.032;2022-07-29T06:45:44;21.90;53.66
68177;DHT22;56478;50.982;7.032;2022-07-29T06:48:12;21.90;55.50
68177;DHT22;56478;50.982;7.032;2022-07-29T06:50:37;21.86;55.66
68177;DHT22;56478;50.982;7.032;2022-07-29T06:53:03;21.73;54.03
68177;DHT22;56478;50.982;7.032;2022-07-29T06:55:28;21.79;55.27
68177;DHT22;56478;50.982;7.032;2022-07-29T06:57:54;21.73;56.14
68177;DHT22;56478;50.982;7.032;2022-07-29T07:00:21;21.82;54.57
68177;DHT22;56478;50.982;7.032;2022-07-29T07:02:47;21.87;53.06
68177;DHT22;56478;50.982;7.032;2022-07-29T07:05:38;21.85;53.83
68177;DHT22;56478;50.982;7.032;2022-07-29T07:08:04;21.69;54.69
68177;DHT22;56478;50.982;7.032;2022-07-29T07:10:35;21.56;54.23
68177;DHT22;56478;50.982;7.032;2022-07-29T07:13:22;21.72;53.54
68177;DHT22;56478;50.982;7.032;2022-07-29T07:16:03;21.67;54.54
68177;DHT22;56478;50.982;7.032;2022-07-29T07:21:25;21.85;54.27
68177;DHT22;56478;50.982;7.032;2022-07-29T07:23:56;21.93;56.37
68177;DHT22;56478;50.982;7.032;2022-07-29T07:26:41;22.01;55.95
68177;DHT22;56478;50.982;7.032;2022-07-29T07:29:13;22.12;56.48
68177;DHT22;56478;50.982;7.032;2022-07-29T07:31:38;22.08;56.82
68177;DHT22;56478;50.982;7.032;2022-07-29T07:34:06;22.22;56.70
68177;DHT22;56478;50.982;7.032;2022-07-29T07:36:34;22.39;56.21
68177;DHT22;56478;50.982;7.032;2022-07-29T07:38:59;22.59;54.15
68177;DHT22;56478;50.982;7.032;2022-07-29T07:41:32;23.22;53.87
68177;DHT22;56478;50.982;7.032;2022-07-29T07:44:04;23.59;53.34
68177;DHT22;56478;50.982;7.032;2022-07-29T07:46:29;23.53;51.27
68177;DHT22;56478;50.982;7.032;2022-07-29T07:48:59;23.31;52.50
68177;DHT22;56478;50.982;7.032;2022-07-29T07:51:25;23.25;54.50
68177;DHT22;56478;50.982;7.032;2022-07-29T07:53:53;23.31;48.42
68177;DHT22;56478;50.982;7.032;2022-07-29T07:56:19;23.19;50.72
68177;DHT22;56478;50.982;7.032;2022-07-29T07:58:48;23.00;53.73
68177;DHT22;56478;50.982;7.032;2022-07-29T08:03:49;22.69;54.11
68177;DHT22;56478;50.982;7.032;2022-07-29T08:06:22;22.56;53.43
68177;DHT22;56478;50.982;7.032;2022-07-29T08:08:50;22.46;55.57
68177;DHT22;56478;50.982;7.032;2022-07-29T08:11:16;22.29;54.54
68177;DHT22;56478;50.982;7.032;2022-07-29T08:13:42;22.35;55.24
68177;DHT22;56478;50.982;7.032;2022-07-29T08:16:08;22.42;53.90
68177;DHT22;56478;50.982;7.032;2022-07-29T08:18:38;22.37;55.59
68177;DHT22;56478;50.982;7.032;2022-07-29T08:21:04;22.31;55.82
68177;DHT22;56478;50.982;7.032;2022-07-29T08:23:31;22.37;57.04
68177;DHT22;56478;50.982;7.032;2022-07-29T08:26:10;22.41;56.50
68177;DHT22;56478;50.982;7.032;2022-07-29T08:28:39;22.46;55.68
68177;DHT22;56478;50.982;7.032;2022-07-29T08:31:13;22.45;55.06
68177;DHT22;56478;50.982;7.032;2022-07-29T08:33:45;22.38;56.77
68177;DHT22;56478;50.982;7.032;2022-07-29T08:36:23;22.55;55.67
68177;DHT22;56478;50.982;7.032;2022-07-29T08:38:54;22.53;55.90
68177;DHT22;56478;50.982;7.032;2022-07-29T08:41:25;22.57;56.57
68177;DHT22;56478;50.982;7.032;2022-07-29T08:44:00;22.62;54.16
68177;DHT22;56478;50.982;7.032;2022-07-29T08:46:46;22.60;56.85
68177;DHT22;56478;50.982;7.032;2022-07-29T08:49:27;22.63;57.21
68177;DHT22;56478;50.982;7.032;2022-07-29T08:51:59;22.65;57.01
68177;DHT22;56478;50.982;7.032;2022-07-29T08:54:27;22.66;55.76
68177;DHT22;56478;50.982;7.032;2022-07-29T08:56:56;22.69;58.38
68177;DHT22;56478;50.982;7.032;2022-07-29T08:59:25;22.90;58.72
68177;DHT22;56478;50.982;7.032;2022-07-29T09:01:56;22.94;58.04
68177;DHT22;56478;50.982;7.032;2022-07-29T09:04:27;22.91;55.15
68177;DHT22;56478;50.982;7.032;2022-07-29T09:07:07;22.97;54.18
68177;DHT22;56478;50.982;7.032;2022-07-29T09:09:36;23.12;55.20
68177;DHT22;56478;50.982;7.032;2022-07-29T09:12:09;23.29;52.33
68177;DHT22;56478;50.982;7.032;2022-07-29T09:14:47;23.77;55.48
68177;DHT22;56478;50.982;7.032;2022-07-29T09:17:15;24.04;55.40
68177;DHT22;56478;50.982;7.032;2022-07-29T09:19:43;24.46;54.68
68177;DHT22;56478;50.982;7.032;2022-07-29T09:22:08;24.74;50.01
68177;DHT22;56478;50.982;7.032;2022-07-29T09:24:39;25.24;49.57
68177;DHT22;56478;50.982;7.032;2022-07-29T09:27:09;26.28;46.90
68177;DHT22;56478;50.982;7.032;2022-07-29T09:29:35;26.69;47.49
68177;DHT22;56478;50.982;7.032;2022-07-29T09:32:06;26.40;44.66
68177;DHT22;56478;50.982;7.032;2022-07-29T09:34:39;26.50;47.19
68177;DHT22;56478;50.982;7.032;2022-07-29T09:37:07;26.86;47.06
68177;DHT22;56478;50.982;7.032;2022-07-29T09:39:39;27.09;42.65
68177;DHT22;56478;50.982;7.032;2022-07-29T09:42:10;27.02;42.64
68177;DHT22;56478;50.982;7.032;2022-07-29T09:44:50;26.76;44.42
68177;DHT22;56478;50.982;7.032;2022-07-29T09:47:19;26.29;46.51
68177;DHT22;56478;50.982;7.032;2022-07-29T09:49:59;26.01;46.47
68177;DHT22;56478;50.982;7.032;2022-07-29T09:52:27;28.45;42.68
68177;DHT22;56478;50.982;7.032;2022-07-29T09:55:05;29.35;40.33
68177;DHT22;56478;50.982;7.032;2022-07-29T09:57:35;29.52;37.96
68177;DHT22;56478;50.982;7.032;2022-07-29T10:00:03;29.63;39.07
68177;DHT22;56478;50.982;7.032;2022-07-29T10:02:38;28.52;40.37
68177;DHT22;56478;50.982;7.032;2022-07-29T10:05:15;27.88;42.23
68177;DHT22;56478;50.982;7.032;2022-07-29T10:10:22;26.72;46.86
68177;DHT22;56478;50.982;7.032;2022-07-29T10:12:56;26.20;46.12
68177;DHT22;56478;50.982;7.032;2022-07-29T10:15:27;25.83;49.99
68177;DHT22;56478;50.982;7.032;2022-07-29T10:18:03;25.36;49.49
68177;DHT22;56478;50.982;7.032;2022-07-29T10:20:31;24.90;49.96
68177;DHT22;56478;50.982;7.032;2022-07-29T10:23:04;25.15;51.59
68177;DHT22;56478;50.982;7.032;2022-07-29T10:25:33;24.95;50.12
68177;DHT22;56478;50.982;7.032;2022-07-29T10:28:05;24.92;49.96
68177;DHT22;56478;50.982;7.032;2022-07-29T10:30:34;25.08;49.04
68177;DHT22;56478;50.982;7.032;2022-07-29T10:33:10;25.06;49.51
68177;DHT22;56478;50.982;7.032;2022-07-29T10:38:30;25.12;49.01
68177;DHT22;56478;50.982;7.032;2022-07-29T10:41:05;25.11;50.53
68177;DHT22;56478;50.982;7.032;2022-07-29T10:43:51;25.34;49.44
68177;DHT22;56478;50.982;7.032;2022-07-29T10:46:16;25.42;50.30
68177;DHT22;56478;50.982;7.032;2022-07-29T10:51:44;25.41;50.16
68177;DHT22;56478;50.982;7.032;2022-07-29T10:54:13;25.46;49.19
68177;DHT22;56478;50.982;7.032;2022-07-29T10:56:43;25.60;49.47
68177;DHT22;56478;50.982;7.032;2022-07-29T11:01:46;26.53;47.83
68177;DHT22;56478;50.982;7.032;2022-07-29T11:04:15;26.63;46.48
68177;DHT22;56478;50.982;7.032;2022-07-29T11:09:31;26.40;49.67
68177;DHT22;56478;50.982;7.032;2022-07-29T11:12:02;26.42;45.84
68177;DHT22;56478;50.982;7.032;2022-07-29T11:17:15;27.84;41.72
68177;DHT22;56478;50.982;7.032;2022-07-29T11:19:41;28.83;39.59
68177;DHT22;56478;50.982;7.032;2022-07-29T11:22:10;29.25;38.51
68177;DHT22;56478;50.982;7.032;2022-07-29T11:24:42;29.56;38.20
68177;DHT22;56478;50.982;7.032;2022-07-29T11:27:17;29.52;39.85
68177;DHT22;56478;50.982;7.032;2022-07-29T11:29:58;30.14;36.89
68177;DHT22;56478;50.982;7.032;2022-07-29T11:32:35;30.21;37.62
68177;DHT22;56478;50.982;7.032;2022-07-29T11:35:11;30.18;36.33
68177;DHT22;56478;50.982;7.032;2022-07-29T11:37:36;30.56;36.25
68177;DHT22;56478;50.982;7.032;2022-07-29T11:45:06;30.39;36.79
68177;DHT22;56478;50.982;7.032;2022-07-29T11:47:39;30.30;37.42
68177;DHT22;56478;50.982;7.032;2022-07-29T11:50:07;30.88;36.04
68177;DHT22;56478;50.982;7.032;2022-07-29T11:52:37;30.56;36.59
68177;DHT22;56478;50.982;7.032;2022-07-29T11:55:22;30.15;38.05
68177;DHT22;56478;50.982;7.032;2022-07-29T11:57:56;29.85;39.41
68177;DHT22;56478;50.982;7.032;2022-07-29T12:00:45;30.25;36.57
68177;DHT22;56478;50.982;7.032;2022-07-29T12:03:24;29.88;38.18
68177;DHT22;56478;50.982;7.032;2022-07-29T12:05:58;30.00;37.08
68177;DHT22;56478;50.982;7.032;2022-07-29T12:08:38;29.98;38.00
68177;DHT22;56478;50.982;7.032;2022-07-29T12:11:04;29.61;39.34
68177;DHT22;56478;50.982;7.032;2022-07-29T12:13:42;29.82;36.56
68177;DHT22;56478;50.982;7.032;2022-07-29T12:16:08;29.88;36.67
68177;DHT22;56478;50.982;7.032;2022-07-29T12:18:33;30.01;36.18
68177;DHT22;56478;50.982;7.032;2022-07-29T12:20:59;29.36;39.02
68177;DHT22;56478;50.982;7.032;2022-07-29T12:23:31;29.69;36.74
68177;DHT22;56478;50.982;7.032;2022-07-29T12:25:57;29.77;38.90
68177;DHT22;56478;50.982;7.032;2022-07-29T12:28:22;29.89;38.65
68177;DHT22;56478;50.982;7.032;2022-07-29T12:30:48;29.97;38.16
68177;DHT22;56478;50.982;7.032;2022-07-29T12:33:21;30.16;35.76
68177;DHT22;56478;50.982;7.032;2022-07-29T12:35:58;30.05;35.87
68177;DHT22;56478;50.982;7.032;2022-07-29T12:38:24;29.81;36.12
68177;DHT22;56478;50.982;7.032;2022-07-29T12:40:52;30.04;34.23
68177;DHT22;56478;50.982;7.032;2022-07-29T12:43:20;29.85;36.31
68177;DHT22;56478;50.982;7.032;2022-07-29T12:45:46;29.85;34.75
68177;DHT22;56478;50.982;7.032;2022-07-29T12:48:12;29.70;35.61
68177;DHT22;56478;50.982;7.032;2022-07-29T12:51:00;29.33;37.12
68177;DHT22;56478;50.982;7.032;2022-07-29T12:53:26;29.32;36.22
68177;DHT22;56478;50.982;7.032;2022-07-29T12:55:52;29.42;37.73
68177;DHT22;56478;50.982;7.032;2022-07-29T13:01:26;30.16;34.21
68177;DHT22;56478;50.982;7.032;2022-07-29T13:06:27;30.25;33.04
68177;DHT22;56478;50.982;7.032;2022-07-29T13:11:52;30.12;33.43
68177;DHT22;56478;50.982;7.032;2022-07-29T13:14:34;30.22;32.74
68177;DHT22;56478;50.982;7.032;2022-07-29T13:17:09;30.25;33.16
68177;DHT22;56478;50.982;7.032;2022-07-29T13:19:38;30.25;32.94
68177;DHT22;56478;50.982;7.032;2022-07-29T13:22:06;30.08;34.50
68177;DHT22;56478;50.982;7.032;2022-07-29T13:24:31;30.12;33.82
68177;DHT22;56478;50.982;7.032;2022-07-29T13:27:03;30.28;34.59
68177;DHT22;56478;50.982;7.032;2022-07-29T13:29:31;30.09;34.81
68177;DHT22;56478;50.982;7.032;2022-07-29T13:32:07;30.25;33.59
68177;DHT22;56478;50.982;7.032;2022-07-29T13:34:35;30.33;33.45
68177;DHT22;56478;50.982;7.032;2022-07-29T13:37:25;30.55;32.24
68177;DHT22;56478;50.982;7.032;2022-07-29T13:40:04;30.47;33.42
68177;DHT22;56478;50.982;7.032;2022-07-29T13:42:32;30.44;33.33
68177;DHT22;56478;50.982;7.032;2022-07-29T13:44:58;30.39;32.68
68177;DHT22;56478;50.982;7.032;2022-07-29T13:47:23;30.22;34.05
68177;DHT22;56478;50.982;7.032;2022-07-29T13:49:49;30.00;35.62
68177;DHT22;56478;50.982;7.032;2022-07-29T13:52:15;29.91;37.66
68177;DHT22;56478;50.982;7.032;2022-07-29T13:54:41;29.89;36.22
68177;DHT22;56478;50.982;7.032;2022-07-29T13:57:06;29.74;38.13
68177;DHT22;56478;50.982;7.032;2022-07-29T13:59:32;29.71;37.61
68177;DHT22;56478;50.982;7.032;2022-07-29T14:01:58;29.53;38.80
68177;DHT22;56478;50.982;7.032;2022-07-29T14:04:24;29.64;37.75
68177;DHT22;56478;50.982;7.032;2022-07-29T14:06:49;29.69;36.24
68177;DHT22;56478;50.982;7.032;2022-07-29T14:09:15;29.77;38.02
68177;DHT22;56478;50.982;7.032;2022-07-29T14:11:40;29.85;36.03
68177;DHT22;56478;50.982;7.032;2022-07-29T14:14:06;29.77;36.95
68177;DHT22;56478;50.982;7.032;2022-07-29T14:16:31;29.61;37.68
68177;DHT22;56478;50.982;7.032;2022-07-29T14:18:57;29.52;38.29
68177;DHT22;56478;50.982;7.032;2022-07-29T14:21:22;29.46;37.69
68177;DHT22;56478;50.982;7.032;2022-07-29T14:23:48;29.52;38.06
68177;DHT22;56478;50.982;7.032;2022-07-29T14:26:13;29.40;37.49
68177;DHT22;56478;50.982;7.032;2022-07-29T14:28:39;29.45;37.94
68177;DHT22;56478;50.982;7.032;2022-07-29T14:31:04;29.52;38.46
68177;DHT22;56478;50.982;7.032;2022-07-29T14:33:30;29.56;36.71
68177;DHT22;56478;50.982;7.032;2022-07-29T14:35:58;29.56;38.24
68177;DHT22;56478;50.982;7.032;2022-07-29T14:38:23;29.53;38.50
68177;DHT22;56478;50.982;7.032;2022-07-29T14:40:48;29.53;36.63
68177;DHT22;56478;50.982;7.032;2022-07-29T14:43:14;29.33;36.95
68177;DHT22;56478;50.982;7.032;2022-07-29T14:45:40;29.01;38.26
68177;DHT22;56478;50.982;7.032;2022-07-29T14:48:05;28.98;38.58
68177;DHT22;56478;50.982;7.032;2022-07-29T14:50:31;29.01;37.68
68177;DHT22;56478;50.982;7.032;2022-07-29T14:52:56;28.86;37.26
68177;DHT22;56478;50.982;7.032;2022-07-29T14:55:22;28.87;38.13
68177;DHT22;56478;50.982;7.032;2022-07-29T14:57:47;28.84;37.39
68177;DHT22;56478;50.982;7.032;2022-07-29T15:00:15;28.86;37.83
68177;DHT22;56478;50.982;7.032;2022-07-29T15:02:40;28.83;37.62
68177;DHT22;56478;50.982;7.032;2022-07-29T15:05:06;28.91;38.60
68177;DHT22;56478;50.982;7.032;2022-07-29T15:07:31;28.91;37.88
68177;DHT22;56478;50.982;7.032;2022-07-29T15:09:57;28.94;39.56
68177;DHT22;56478;50.982;7.032;2022-07-29T15:12:25;28.95;37.91
68177;DHT22;56478;50.982;7.032;2022-07-29T15:14:53;28.94;38.30
68177;DHT22;56478;50.982;7.032;2022-07-29T15:17:19;29.04;37.45
68177;DHT22;56478;50.982;7.032;2022-07-29T15:19:50;29.01;36.85
68177;DHT22;56478;50.982;7.032;2022-07-29T15:22:15;28.97;37.16
68177;DHT22;56478;50.982;7.032;2022-07-29T15:24:41;28.77;37.29
68177;DHT22;56478;50.982;7.032;2022-07-29T15:27:14;28.63;37.62
68177;DHT22;56478;50.982;7.032;2022-07-29T15:29:43;28.42;38.76
68177;DHT22;56478;50.982;7.032;2022-07-29T15:32:12;28.32;37.30
68177;DHT22;56478;50.982;7.032;2022-07-29T15:34:37;28.21;37.34
68177;DHT22;56478;50.982;7.032;2022-07-29T15:37:09;28.11;37.69
68177;DHT22;56478;50.982;7.032;2022-07-29T15:39:36;27.88;37.16
68177;DHT22;56478;50.982;7.032;2022-07-29T15:42:02;27.60;36.87
68177;DHT22;56478;50.982;7.032;2022-07-29T15:44:28;27.50;38.31
68177;DHT22;56478;50.982;7.032;2022-07-29T15:46:53;27.36;38.84
68177;DHT22;56478;50.982;7.032;2022-07-29T15:49:28;27.24;38.84
68177;DHT22;56478;50.982;7.032;2022-07-29T15:51:58;27.39;37.90
68177;DHT22;56478;50.982;7.032;2022-07-29T15:54:29;27.38;38.85
68177;DHT22;56478;50.982;7.032;2022-07-29T15:56:55;27.35;38.05
68177;DHT22;56478;50.982;7.032;2022-07-29T15:59:21;27.38;37.10
68177;DHT22;56478;50.982;7.032;2022-07-29T16:01:49;27.53;35.54
68177;DHT22;56478;50.982;7.032;2022-07-29T16:04:15;27.50;37.04
68177;DHT22;56478;50.982;7.032;2022-07-29T16:09:32;27.11;38.15
68177;DHT22;56478;50.982;7.032;2022-07-29T16:11:58;27.15;39.01
68177;DHT22;56478;50.982;7.032;2022-07-29T16:14:23;27.15;39.30
68177;DHT22;56478;50.982;7.032;2022-07-29T16:16:49;27.12;38.61
68177;DHT22;56478;50.982;7.032;2022-07-29T16:19:15;27.01;39.16
68177;DHT22;56478;50.982;7.032;2022-07-29T16:21:40;26.91;40.26
68177;DHT22;56478;50.982;7.032;2022-07-29T16:24:06;26.94;39.34
68177;DHT22;56478;50.982;7.032;2022-07-29T16:26:34;26.87;39.53
68177;DHT22;56478;50.982;7.032;2022-07-29T16:29:00;26.79;39.95
68177;DHT22;56478;50.982;7.032;2022-07-29T16:31:26;26.72;41.13
68177;DHT22;56478;50.982;7.032;2022-07-29T16:33:52;26.56;40.70
68177;DHT22;56478;50.982;7.032;2022-07-29T16:36:20;26.61;39.66
68177;DHT22;56478;50.982;7.032;2022-07-29T16:38:46;26.70;39.14
68177;DHT22;56478;50.982;7.032;2022-07-29T16:41:14;26.70;39.54
68177;DHT22;56478;50.982;7.032;2022-07-29T16:46:53;26.24;42.03
68177;DHT22;56478;50.982;7.032;2022-07-29T16:49:18;26.12;42.42
68177;DHT22;56478;50.982;7.032;2022-07-29T16:51:44;26.00;41.90
68177;DHT22;56478;50.982;7.032;2022-07-29T16:54:19;25.84;40.19
68177;DHT22;56478;50.982;7.032;2022-07-29T16:56:47;25.84;40.40
68177;DHT22;56478;50.982;7.032;2022-07-29T16:59:15;25.83;39.89
68177;DHT22;56478;50.982;7.032;2022-07-29T17:01:56;25.91;38.93
68177;DHT22;56478;50.982;7.032;2022-07-29T17:04:29;25.95;38.29
68177;DHT22;56478;50.982;7.032;2022-07-29T17:06:57;26.00;38.45
68177;DHT22;56478;50.982;7.032;2022-07-29T17:09:23;26.06;38.49
68177;DHT22;56478;50.982;7.032;2022-07-29T17:11:53;26.15;39.08
68177;DHT22;56478;50.982;7.032;2022-07-29T17:14:20;26.14;39.29
68177;DHT22;56478;50.982;7.032;2022-07-29T17:16:54;26.21;38.60
68177;DHT22;56478;50.982;7.032;2022-07-29T17:19:26;26.18;39.29
68177;DHT22;56478;50.982;7.032;2022-07-29T17:21:57;26.18;37.77
68177;DHT22;56478;50.982;7.032;2022-07-29T17:24:29;26.18;38.01
68177;DHT22;56478;50.982;7.032;2022-07-29T17:27:04;26.18;38.12
68177;DHT22;56478;50.982;7.032;2022-07-29T17:29:30;26.25;38.02
68177;DHT22;56478;50.982;7.032;2022-07-29T17:32:16;26.20;37.98
68177;DHT22;56478;50.982;7.032;2022-07-29T17:34:44;26.24;38.00
68177;DHT22;56478;50.982;7.032;2022-07-29T17:37:16;26.28;38.12
68177;DHT22;56478;50.982;7.032;2022-07-29T17:39:41;26.25;39.10
68177;DHT22;56478;50.982;7.032;2022-07-29T17:42:10;26.21;37.99
68177;DHT22;56478;50.982;7.032;2022-07-29T17:44:42;26.28;37.99
68177;DHT22;56478;50.982;7.032;2022-07-29T17:47:14;26.29;38.84
68177;DHT22;56478;50.982;7.032;2022-07-29T17:49:43;26.31;38.16
68177;DHT22;56478;50.982;7.032;2022-07-29T17:52:14;26.24;41.07
68177;DHT22;56478;50.982;7.032;2022-07-29T17:54:56;26.25;38.43
68177;DHT22;56478;50.982;7.032;2022-07-29T17:57:39;26.26;38.41
68177;DHT22;56478;50.982;7.032;2022-07-29T18:00:05;26.17;39.45
68177;DHT22;56478;50.982;7.032;2022-07-29T18:02:33;26.06;38.93